Flight Track Log - Related Links

Times and Time Zones

All times are in EDT time to prevent confusion due to time zone crossing. See the ASH3770 flight status page for this flight to view local times or setup timezone preferences in your user account.

Time Position Orientation Groundspeed Altitude Reporting Facility
EDT Latitude Longitude Course Direction KTS MPH feet Rate Location/Type
Tue 06:39:00 PM 40.5974 -80.7826 291° West  Level FlightAware Approximate
Tue 06:39:33 PM 40.5358 -80.3017 254° West 295 339 10,700  Level Cleveland Center
Tue 06:40:00 PM 40.6311 -80.9222 285° West  Level FlightAware Approximate
Tue 06:40:33 PM 40.5444 -80.4136 276° West 302 348 12,500  Level Cleveland Center
Tue 06:41:00 PM 40.6606 -81.0635 282° West  Level FlightAware Approximate
Tue 06:41:33 PM 40.5694 -80.5422 284° West 319 367 14,700  Level Cleveland Center
Tue 06:42:00 PM 40.6890 -81.2055 286° West  Level FlightAware Approximate
Tue 06:42:33 PM 40.5967 -80.6761 285° West 361 415 16,400  Level Cleveland Center
Tue 06:43:00 PM 40.7188 -81.3470 286° West  Level FlightAware Approximate
Tue 06:43:34 PM 40.6256 -80.8156 285° West 382 440 18,300  Level Cleveland Center
Tue 06:44:00 PM 40.7436 -81.4872 303° West  Level FlightAware Approximate
Tue 06:44:34 PM 40.6522 -80.9636 283° West 403 464 20,200  Level Cleveland Center
Tue 06:45:33 PM 40.6747 -81.0950 283° West 415 478 21,900 1,563 Climbing Cleveland Center
Tue 06:46:33 PM 40.7053 -81.2486 285° West 427 491 23,300 1,438 Climbing Cleveland Center
Tue 06:47:34 PM 40.7333 -81.4022 284° West 432 497 24,800 1,400 Climbing Cleveland Center
Tue 06:48:33 PM 40.7653 -81.5728 284° West 432 497 26,100 1,261 Climbing Cleveland Center
Tue 06:49:33 PM 40.7950 -81.7378 283° West 444 511 27,300 1,400 Climbing Cleveland Center
Tue 06:50:33 PM 40.8247 -81.9003 284° West 455 524 28,900 1,550 Climbing Cleveland Center
Tue 06:51:33 PM 40.8539 -82.0600 284° West 455 524 30,400 1,350 Climbing Cleveland Center
Tue 06:52:33 PM 40.8850 -82.2228 284° West 455 524 31,600 800 Climbing Cleveland Center
Tue 06:53:33 PM 40.9139 -82.3883 283° West 458 527 32,000 200 Climbing Cleveland Center
Tue 06:54:33 PM 40.9442 -82.5622 283° West 478 550 32,000  Level Cleveland Center
Tue 06:55:33 PM 40.9706 -82.7228 282° West 490 564 32,000  Level Cleveland Center
Tue 06:56:33 PM 41.0025 -82.9025 283° West 498 573 32,000 550 Level Cleveland Center
Tue 06:57:33 PM 41.0364 -83.0800 284° West 498 573 33,100 1,000 Climbing Cleveland Center
Tue 06:58:33 PM 41.0694 -83.2714 283° West 486 559 34,000 450 Climbing Cleveland Center
Tue 06:59:33 PM 41.0947 -83.4267 282° West 486 559 34,000  Level Cleveland Center
Tue 07:00:33 PM 41.1197 -83.5931 281° West 486 559 34,000  Level Cleveland Center
Tue 07:01:33 PM 41.1444 -83.7569 281° West 467 537 34,000  Level Cleveland Center
Tue 07:03:13 PM 41.1942 -84.0422 283° West 461 531 34,000  Level Chicago Center
Tue 07:04:15 PM 41.2211 -84.2125 282° West 471 542 34,000  Level Chicago Center
Tue 07:05:17 PM 41.2294 -84.3856 274° West 469 540 34,000  Level Chicago Center
Tue 07:06:20 PM 41.2361 -84.5606 273° West 474 545 34,000  Level Chicago Center
Tue 07:07:22 PM 41.2433 -84.7383 273° West 481 554 34,000  Level Chicago Center
Tue 07:08:24 PM 41.2506 -84.9500 273° West 478 550 34,000  Level Chicago Center
Tue 07:09:26 PM 41.2567 -85.1269 273° West 477 549 34,000  Level Chicago Center
Tue 07:10:28 PM 41.2617 -85.3036 272° West 477 549 34,000  Level Chicago Center
Tue 07:11:30 PM 41.2678 -85.4803 273° West 476 548 34,000 -290 Level Chicago Center
Tue 07:12:32 PM 41.2731 -85.6561 272° West 473 544 33,400 -2,758 Descending Chicago Center
Tue 07:13:34 PM 41.2764 -85.8222 272° West 456 525 28,300 -4,065 Descending Chicago Center
Tue 07:14:36 PM 41.2806 -85.9825 272° West 439 505 25,000 -1,597 Descending Chicago Center
Tue 07:15:38 PM 41.3164 -86.1325 288° West 425 489 25,000  Level Chicago Center
Tue 07:16:40 PM 41.3619 -86.3222 288° West 445 512 25,000 -384 Level Chicago Center
Tue 07:17:43 PM 41.4017 -86.4844 288° West 459 528 24,200 -1,872 Descending Chicago Center
Tue 07:18:45 PM 41.4383 -86.6394 288° West 436 502 21,100 -3,097 Descending Chicago Center
Tue 07:19:47 PM 41.4781 -86.8008 288° West 406 467 17,800 -2,903 Descending Chicago Center
Tue 07:20:49 PM 41.5094 -86.9358 287° West 385 443 15,100 -2,613 Descending Chicago Center
Tue 07:21:51 PM 41.5394 -87.0639 287° West 366 421 12,400 -1,500 Descending Chicago Center
Tue 07:22:53 PM 41.5686 -87.1869 288° West 353 406 12,000 -178 Descending Chicago Center
Tue 07:23:32 PM 41.6000 -87.2833 294° West 357 411 12,100  Climbing Chicago TRACON
Tue 07:24:26 PM 41.6667 -87.3667 317° Northwest 362 417 12,000 -70 Descending Chicago TRACON
Tue 07:24:58 PM 41.6928 -87.4242 301° West 361 415 12,000  Level Chicago Center
Tue 07:26:00 PM 41.7544 -87.5258 309° West 359 413 12,000 -644 Level Chicago Center
Tue 07:27:27 PM 41.8333 -87.6500 310° West 290 334 10,400 -1,184 Descending Chicago TRACON
Tue 07:28:27 PM 41.8833 -87.7500 304° West 279 321 9,100 -650 Descending Chicago TRACON
Tue 07:29:27 PM 41.9000 -87.8500 283° West 283 326 9,100 -50 Level Chicago TRACON
Tue 07:30:27 PM 41.8833 -87.9500 257° West 267 307 9,000 -700 Descending Chicago TRACON
Tue 07:31:27 PM 41.8833 -88.0333 270° West 207 238 7,700 -1,316 Descending Chicago TRACON
Tue 07:32:21 PM 41.8833 -88.0833 270° West 193 222 6,500 -1,290 Descending Chicago TRACON
Tue 07:33:14 PM 41.8842 -88.1408 271° West 194 223 5,400 -783 Descending Chicago Center
Tue 07:34:16 PM 41.8925 -88.2194 278° West 186 214 5,000 -192 Descending Chicago Center
Tue 07:35:19 PM 41.8978 -88.2853 276° West 181 208 5,000  Level Chicago Center
Tue 07:36:21 PM 41.9411 -88.3028 343° North 184 212 5,000  Level Chicago Center
Tue 07:37:23 PM 41.9669 -88.2589 52° Northeast 202 232 5,000 -194 Level Chicago Center
Tue 07:38:25 PM 41.9675 -88.1931 89° East 179 206 4,600 -387 Descending Chicago Center

Login

Don't have an account? Register now (free) for customized features, flight alerts, and more!